Snow/Ice From: 17-12-2017 10:00 Until: 18-12-2017 06:00 warning for: Snow/Ice Level: Yellow info button

Although rather usual in this region, locally or potentially dangerous phenomena are expected. (such as local winds, summer thunderstorms, rising streams or high waves) Be aware and pay attention to the latest weather updates, especially if you carry out activities exposed to weather or close to a stream or shoreline. 


Meteo18 Weather Cam more information Meteo18 Weather Cam


Thunder radar more information blitzortung!


warning for Snow/Ice more information rain snow radar


Visit our other weather sites:

Template documentation
and downloads

And another site



Weather Underground History page Text

Daily Summary for July 18, 2017 Units:  Both    English   Metric
« Previous Day
Next Day »
Daily Weekly Monthly Yearly Custom
  High: Low: Average:
Temperature: 92.8 °F /  33.8 °C 66 °F /  18.9 °C 79.5 °F /  26.4 °C
Dew Point: 67.6 °F /  19.8 °C 56.5 °F /  13.6 °C 60.3 °F /  15.7 °C
Humidity: 77 % 32 % 54 %
Wind Speed: 10 mph /  16.1 km/h - 2.1 mph /  3.3 km/h
Wind Gust: 16 mph /  25.7 km/h - -
Wind:- - ESE
Pressure: 30.1 in /  1017.8 hPa 29.8 in /  1010.4 hPa -
Precipitation: 0.01 in /  0.3 mm    
Historical Graphs
 
 
Tabular Data for July 18, 2017
Time Temperature Dew Point Pressure Wind Wind Speed Wind Gust Humidity Rainfall Rate (Hourly)
00:02 72.1 °F /  22.3 °C 60.1 °F /  15.6 °C 30.1 in /  1017.8 hPa NNW 1 mph /  1.6 km/h 2 mph /  3.2 km/h 66 % 0 in /  0.0 mm
00:12 72 °F /  22.2 °C 60.4 °F /  15.8 °C 30.1 in /  1017.8 hPa Calm   2 mph /  3.2 km/h 67 % 0 in /  0.0 mm
00:17 71.8 °F /  22.1 °C 60.3 °F /  15.7 °C 30.1 in /  1017.8 hPa Calm   2 mph /  3.2 km/h 67 % 0 in /  0.0 mm
00:22 71.6 °F /  22.0 °C 60.1 °F /  15.6 °C 30.1 in /  1017.8 hPa NNW 2 mph /  3.2 km/h 2 mph /  3.2 km/h 67 % 0 in /  0.0 mm
00:32 71.6 °F /  22.0 °C 60.1 °F /  15.6 °C 30.1 in /  1017.5 hPa Calm   2 mph /  3.2 km/h 67 % 0 in /  0.0 mm
00:42 71.4 °F /  21.9 °C 60.3 °F /  15.7 °C 30.1 in /  1017.5 hPa NNW 1 mph /  1.6 km/h 2 mph /  3.2 km/h 68 % 0 in /  0.0 mm
00:47 71.4 °F /  21.9 °C 60.3 °F /  15.7 °C 30.1 in /  1017.5 hPa Calm   2 mph /  3.2 km/h 68 % 0 in /  0.0 mm
00:52 71.2 °F /  21.8 °C 59.7 °F /  15.4 °C 30.1 in /  1017.5 hPa Calm   2 mph /  3.2 km/h 67 % 0 in /  0.0 mm
00:57 71.2 °F /  21.8 °C 60.1 °F /  15.6 °C 30.1 in /  1017.5 hPa Calm   2 mph /  3.2 km/h 68 % 0 in /  0.0 mm
01:02 71.2 °F /  21.8 °C 60.1 °F /  15.6 °C 30.1 in /  1017.5 hPa North 1 mph /  1.6 km/h 2 mph /  3.2 km/h 68 % 0 in /  0.0 mm
01:07 71.1 °F /  21.7 °C 59.9 °F /  15.5 °C 30.1 in /  1017.5 hPa North 1 mph /  1.6 km/h 2 mph /  3.2 km/h 68 % 0 in /  0.0 mm
01:12 70.9 °F /  21.6 °C 59.7 °F /  15.4 °C 30.1 in /  1017.5 hPa Calm   2 mph /  3.2 km/h 68 % 0 in /  0.0 mm
01:17 70.9 °F /  21.6 °C 59.7 °F /  15.4 °C 30.1 in /  1017.5 hPa NNW 2 mph /  3.2 km/h 2 mph /  3.2 km/h 68 % 0 in /  0.0 mm
01:22 71.1 °F /  21.7 °C 59.5 °F /  15.3 °C 30.1 in /  1017.5 hPa NNW 1 mph /  1.6 km/h 2 mph /  3.2 km/h 67 % 0 in /  0.0 mm
01:27 70.9 °F /  21.6 °C 59.4 °F /  15.2 °C 30.1 in /  1017.5 hPa Calm   2 mph /  3.2 km/h 67 % 0 in /  0.0 mm
01:32 70.7 °F /  21.5 °C 59.5 °F /  15.3 °C 30.1 in /  1017.5 hPa Calm   2 mph /  3.2 km/h 68 % 0 in /  0.0 mm
01:37 70.7 °F /  21.5 °C 59.5 °F /  15.3 °C 30 in /  1017.2 hPa Calm   2 mph /  3.2 km/h 68 % 0 in /  0.0 mm
01:42 70.5 °F /  21.4 °C 59.4 °F /  15.2 °C 30 in /  1017.2 hPa Calm     68 % 0 in /  0.0 mm
01:47 70.3 °F /  21.3 °C 59.4 °F /  15.2 °C 30 in /  1017.2 hPa Calm     68 % 0 in /  0.0 mm
01:52 70.3 °F /  21.3 °C 59.4 °F /  15.2 °C 30 in /  1017.2 hPa Calm     68 % 0 in /  0.0 mm
01:57 70.2 °F /  21.2 °C 59.5 °F /  15.3 °C 30 in /  1017.2 hPa Calm     69 % 0 in /  0.0 mm
02:02 69.4 °F /  20.8 °C 59.2 °F /  15.1 °C 30 in /  1017.2 hPa Calm     70 % 0 in /  0.0 mm
02:07 68.9 °F /  20.5 °C 59.5 °F /  15.3 °C 30 in /  1017.2 hPa Calm     72 % 0 in /  0.0 mm
02:12 68.7 °F /  20.4 °C 59 °F /  15.0 °C 30 in /  1017.2 hPa Calm     71 % 0 in /  0.0 mm
02:17 68.7 °F /  20.4 °C 59 °F /  15.0 °C 30 in /  1017.2 hPa Calm     71 % 0 in /  0.0 mm
02:22 68.7 °F /  20.4 °C 59.4 °F /  15.2 °C 30 in /  1017.2 hPa Calm     72 % 0 in /  0.0 mm
02:32 68.7 °F /  20.4 °C 59 °F /  15.0 °C 30 in /  1017.2 hPa Calm   2 mph /  3.2 km/h 71 % 0 in /  0.0 mm
02:42 68.4 °F /  20.2 °C 59 °F /  15.0 °C 30 in /  1017.2 hPa NW 1 mph /  1.6 km/h 3 mph /  4.8 km/h 72 % 0 in /  0.0 mm
02:47 68.4 °F /  20.2 °C 59 °F /  15.0 °C 30 in /  1017.2 hPa Calm   3 mph /  4.8 km/h 72 % 0 in /  0.0 mm
02:52 68.5 °F /  20.3 °C 59.2 °F /  15.1 °C 30 in /  1016.8 hPa Calm   2 mph /  3.2 km/h 72 % 0 in /  0.0 mm
02:57 68.4 °F /  20.2 °C 59 °F /  15.0 °C 30 in /  1016.8 hPa North 1 mph /  1.6 km/h 2 mph /  3.2 km/h 72 % 0 in /  0.0 mm
03:02 68.2 °F /  20.1 °C 59.2 °F /  15.1 °C 30 in /  1016.8 hPa NNW 2 mph /  3.2 km/h 3 mph /  4.8 km/h 73 % 0 in /  0.0 mm
03:07 68 °F /  20.0 °C 59 °F /  15.0 °C 30 in /  1016.8 hPa NNE 2 mph /  3.2 km/h 3 mph /  4.8 km/h 73 % 0 in /  0.0 mm
03:12 67.8 °F /  19.9 °C 58.8 °F /  14.9 °C 30 in /  1016.8 hPa NNW 1 mph /  1.6 km/h 3 mph /  4.8 km/h 73 % 0 in /  0.0 mm
03:17 67.8 °F /  19.9 °C 59.2 °F /  15.1 °C 30 in /  1016.8 hPa North 2 mph /  3.2 km/h 3 mph /  4.8 km/h 74 % 0 in /  0.0 mm
03:22 67.8 °F /  19.9 °C 58.8 °F /  14.9 °C 30 in /  1016.8 hPa NNE 1 mph /  1.6 km/h 3 mph /  4.8 km/h 73 % 0 in /  0.0 mm
03:27 67.6 °F /  19.8 °C 59 °F /  15.0 °C 30 in /  1016.8 hPa Calm   3 mph /  4.8 km/h 74 % 0 in /  0.0 mm
03:32 67.3 °F /  19.6 °C 58.6 °F /  14.8 °C 30 in /  1016.8 hPa Calm   3 mph /  4.8 km/h 74 % 0 in /  0.0 mm
03:37 67.1 °F /  19.5 °C 58.8 °F /  14.9 °C 30 in /  1016.5 hPa Calm   2 mph /  3.2 km/h 75 % 0 in /  0.0 mm
03:42 67.1 °F /  19.5 °C 58.8 °F /  14.9 °C 30 in /  1016.5 hPa Calm   2 mph /  3.2 km/h 75 % 0 in /  0.0 mm
03:47 67.3 °F /  19.6 °C 58.6 °F /  14.8 °C 30 in /  1016.5 hPa Calm   2 mph /  3.2 km/h 74 % 0 in /  0.0 mm
03:52 67.5 °F /  19.7 °C 58.8 °F /  14.9 °C 30 in /  1016.5 hPa NE 4 mph /  6.4 km/h 4 mph /  6.4 km/h 74 % 0 in /  0.0 mm
03:57 68.2 °F /  20.1 °C 59.2 °F /  15.1 °C 30 in /  1016.5 hPa NE 4 mph /  6.4 km/h 5 mph /  8.0 km/h 73 % 0 in /  0.0 mm
04:02 68.4 °F /  20.2 °C 59 °F /  15.0 °C 30 in /  1016.5 hPa NE 2 mph /  3.2 km/h 7 mph /  11.3 km/h 72 % 0 in /  0.0 mm
04:12 68.2 °F /  20.1 °C 59.2 °F /  15.1 °C 30 in /  1016.5 hPa NNE 1 mph /  1.6 km/h 7 mph /  11.3 km/h 73 % 0 in /  0.0 mm
04:17 67.8 °F /  19.9 °C 58.8 °F /  14.9 °C 30 in /  1016.5 hPa Calm   6 mph /  9.7 km/h 73 % 0 in /  0.0 mm
04:22 67.5 °F /  19.7 °C 58.8 °F /  14.9 °C 30 in /  1016.1 hPa North 1 mph /  1.6 km/h 6 mph /  9.7 km/h 74 % 0 in /  0.0 mm
04:32 67.1 °F /  19.5 °C 58.8 °F /  14.9 °C 30 in /  1016.1 hPa NNW 1 mph /  1.6 km/h 3 mph /  4.8 km/h 75 % 0 in /  0.0 mm
04:37 67.1 °F /  19.5 °C 58.8 °F /  14.9 °C 30 in /  1016.1 hPa Calm   3 mph /  4.8 km/h 75 % 0 in /  0.0 mm
04:42 67.1 °F /  19.5 °C 58.5 °F /  14.7 °C 30 in /  1016.1 hPa NNW 1 mph /  1.6 km/h 3 mph /  4.8 km/h 74 % 0 in /  0.0 mm
04:47 66.9 °F /  19.4 °C 58.8 °F /  14.9 °C 30 in /  1016.1 hPa Calm   3 mph /  4.8 km/h 75 % 0 in /  0.0 mm
04:52 66.7 °F /  19.3 °C 58.6 °F /  14.8 °C 30 in /  1016.1 hPa Calm   3 mph /  4.8 km/h 75 % 0 in /  0.0 mm
04:57 66.6 °F /  19.2 °C 58.5 °F /  14.7 °C 30 in /  1016.1 hPa Calm   2 mph /  3.2 km/h 75 % 0 in /  0.0 mm
05:02 66.6 °F /  19.2 °C 58.5 °F /  14.7 °C 30 in /  1016.1 hPa Calm   1 mph /  1.6 km/h 75 % 0 in /  0.0 mm
05:12 66.6 °F /  19.2 °C 58.5 °F /  14.7 °C 30 in /  1016.1 hPa Calm   2 mph /  3.2 km/h 75 % 0 in /  0.0 mm
05:17 66.4 °F /  19.1 °C 58.6 °F /  14.8 °C 30 in /  1016.1 hPa Calm   2 mph /  3.2 km/h 76 % 0 in /  0.0 mm
05:22 66.2 °F /  19.0 °C 58.5 °F /  14.7 °C 30 in /  1015.8 hPa Calm   1 mph /  1.6 km/h 76 % 0 in /  0.0 mm
05:27 66.2 °F /  19.0 °C 58.5 °F /  14.7 °C 30 in /  1015.8 hPa Calm   1 mph /  1.6 km/h 76 % 0 in /  0.0 mm
05:37 66 °F /  18.9 °C 58.6 °F /  14.8 °C 30 in /  1015.8 hPa Calm   1 mph /  1.6 km/h 77 % 0 in /  0.0 mm
05:42 66.2 °F /  19.0 °C 58.5 °F /  14.7 °C 30 in /  1015.8 hPa North 1 mph /  1.6 km/h 1 mph /  1.6 km/h 76 % 0 in /  0.0 mm
05:47 66.2 °F /  19.0 °C 58.5 °F /  14.7 °C 30 in /  1015.8 hPa Calm   3 mph /  4.8 km/h 76 % 0 in /  0.0 mm
05:52 66.2 °F /  19.0 °C 58.5 °F /  14.7 °C 30 in /  1015.8 hPa Calm   3 mph /  4.8 km/h 76 % 0 in /  0.0 mm
06:02 66.4 °F /  19.1 °C 58.3 °F /  14.6 °C 30 in /  1015.8 hPa ENE 1 mph /  1.6 km/h 1 mph /  1.6 km/h 75 % 0 in /  0.0 mm
06:12 66.9 °F /  19.4 °C 58.8 °F /  14.9 °C 30 in /  1015.8 hPa NE 3 mph /  4.8 km/h 4 mph /  6.4 km/h 75 % 0 in /  0.0 mm
06:17 67.1 °F /  19.5 °C 58.5 °F /  14.7 °C 30 in /  1015.8 hPa NE 4 mph /  6.4 km/h 4 mph /  6.4 km/h 74 % 0 in /  0.0 mm
06:22 67.1 °F /  19.5 °C 58.5 °F /  14.7 °C 30 in /  1015.8 hPa NE 1 mph /  1.6 km/h 4 mph /  6.4 km/h 74 % 0 in /  0.0 mm
06:32 66.9 °F /  19.4 °C 58.8 °F /  14.9 °C 30 in /  1016.1 hPa Calm   4 mph /  6.4 km/h 75 % 0 in /  0.0 mm
06:42 66.4 °F /  19.1 °C 58.6 °F /  14.8 °C 30 in /  1015.8 hPa North 1 mph /  1.6 km/h 5 mph /  8.0 km/h 76 % 0 in /  0.0 mm
06:47 66.4 °F /  19.1 °C 58.6 °F /  14.8 °C 30 in /  1015.8 hPa Calm   3 mph /  4.8 km/h 76 % 0 in /  0.0 mm
06:52 66.4 °F /  19.1 °C 58.6 °F /  14.8 °C 30 in /  1015.8 hPa Calm   3 mph /  4.8 km/h 76 % 0 in /  0.0 mm
06:57 66.6 °F /  19.2 °C 58.8 °F /  14.9 °C 30 in /  1015.8 hPa Calm   2 mph /  3.2 km/h 76 % 0 in /  0.0 mm
07:02 67.3 °F /  19.6 °C 59 °F /  15.0 °C 30 in /  1015.8 hPa Calm   2 mph /  3.2 km/h 75 % 0 in /  0.0 mm
07:12 68.2 °F /  20.1 °C 59.5 °F /  15.3 °C 30 in /  1015.8 hPa Calm   1 mph /  1.6 km/h 74 % 0 in /  0.0 mm
07:17 68.5 °F /  20.3 °C 59.9 °F /  15.5 °C 30 in /  1015.8 hPa Calm   1 mph /  1.6 km/h 74 % 0 in /  0.0 mm
07:22 69.1 °F /  20.6 °C 60.1 °F /  15.6 °C 30 in /  1015.8 hPa Calm     73 % 0 in /  0.0 mm
07:32 70.2 °F /  21.2 °C 60.6 °F /  15.9 °C 30 in /  1015.8 hPa NNE 1 mph /  1.6 km/h   72 % 0 in /  0.0 mm
07:42 70.5 °F /  21.4 °C 60.3 °F /  15.7 °C 30 in /  1015.5 hPa NE 3 mph /  4.8 km/h 3 mph /  4.8 km/h 70 % 0 in /  0.0 mm
07:52 70.7 °F /  21.5 °C 60.4 °F /  15.8 °C 30 in /  1015.5 hPa NNE 2 mph /  3.2 km/h 3 mph /  4.8 km/h 70 % 0 in /  0.0 mm
07:57 71.1 °F /  21.7 °C 60.4 °F /  15.8 °C 30 in /  1015.8 hPa NE 2 mph /  3.2 km/h 5 mph /  8.0 km/h 69 % 0 in /  0.0 mm
08:02 71.4 °F /  21.9 °C 60.8 °F /  16.0 °C 30 in /  1015.8 hPa NE 1 mph /  1.6 km/h 5 mph /  8.0 km/h 69 % 0 in /  0.0 mm
08:12 72.3 °F /  22.4 °C 61.5 °F /  16.4 °C 30 in /  1015.8 hPa ENE 2 mph /  3.2 km/h 5 mph /  8.0 km/h 69 % 0 in /  0.0 mm
08:17 72.5 °F /  22.5 °C 61 °F /  16.1 °C 30 in /  1015.8 hPa ENE 3 mph /  4.8 km/h 3 mph /  4.8 km/h 67 % 0 in /  0.0 mm
08:22 72.9 °F /  22.7 °C 60.8 °F /  16.0 °C 30 in /  1015.8 hPa East 3 mph /  4.8 km/h 6 mph /  9.7 km/h 66 % 0 in /  0.0 mm
08:27 73.2 °F /  22.9 °C 61.2 °F /  16.2 °C 30 in /  1015.8 hPa ENE 2 mph /  3.2 km/h 6 mph /  9.7 km/h 66 % 0 in /  0.0 mm
08:32 73.6 °F /  23.1 °C 61.5 °F /  16.4 °C 30 in /  1015.8 hPa ENE 3 mph /  4.8 km/h 6 mph /  9.7 km/h 66 % 0 in /  0.0 mm
08:42 74.5 °F /  23.6 °C 61 °F /  16.1 °C 30 in /  1015.5 hPa ENE 4 mph /  6.4 km/h 4 mph /  6.4 km/h 63 % 0 in /  0.0 mm
08:47 75 °F /  23.9 °C 60.3 °F /  15.7 °C 30 in /  1015.5 hPa NE 4 mph /  6.4 km/h 6 mph /  9.7 km/h 60 % 0 in /  0.0 mm
08:52 75.6 °F /  24.2 °C 59.2 °F /  15.1 °C 30 in /  1015.5 hPa ESE 2 mph /  3.2 km/h 6 mph /  9.7 km/h 57 % 0 in /  0.0 mm
08:57 76.1 °F /  24.5 °C 59.2 °F /  15.1 °C 30 in /  1015.5 hPa Calm   7 mph /  11.3 km/h 56 % 0 in /  0.0 mm
09:02 76.5 °F /  24.7 °C 59.2 °F /  15.1 °C 30 in /  1015.5 hPa SE 5 mph /  8.0 km/h 7 mph /  11.3 km/h 55 % 0 in /  0.0 mm
09:12 76.5 °F /  24.7 °C 60.1 °F /  15.6 °C 30 in /  1015.5 hPa ESE 3 mph /  4.8 km/h 6 mph /  9.7 km/h 57 % 0 in /  0.0 mm
09:17 77 °F /  25.0 °C 60.6 °F /  15.9 °C 30 in /  1015.5 hPa East 1 mph /  1.6 km/h 7 mph /  11.3 km/h 57 % 0 in /  0.0 mm
09:22 77.2 °F /  25.1 °C 60.3 °F /  15.7 °C 30 in /  1015.5 hPa East 1 mph /  1.6 km/h 7 mph /  11.3 km/h 56 % 0 in /  0.0 mm
09:27 77.4 °F /  25.2 °C 60.4 °F /  15.8 °C 30 in /  1015.5 hPa SE 3 mph /  4.8 km/h 7 mph /  11.3 km/h 56 % 0 in /  0.0 mm
09:32 77.9 °F /  25.5 °C 61 °F /  16.1 °C 30 in /  1015.5 hPa NE 4 mph /  6.4 km/h 7 mph /  11.3 km/h 56 % 0 in /  0.0 mm
09:42 77.9 °F /  25.5 °C 60.4 °F /  15.8 °C 30 in /  1015.5 hPa Calm   7 mph /  11.3 km/h 55 % 0 in /  0.0 mm
09:52 77.5 °F /  25.3 °C 60.1 °F /  15.6 °C 30 in /  1015.1 hPa East 6 mph /  9.7 km/h 6 mph /  9.7 km/h 55 % 0 in /  0.0 mm
09:57 78.4 °F /  25.8 °C 60.4 °F /  15.8 °C 30 in /  1015.1 hPa ESE 1 mph /  1.6 km/h 9 mph /  14.5 km/h 54 % 0 in /  0.0 mm
10:02 79.2 °F /  26.2 °C 59.5 °F /  15.3 °C 30 in /  1015.1 hPa ENE 4 mph /  6.4 km/h 9 mph /  14.5 km/h 51 % 0 in /  0.0 mm
10:12 79.7 °F /  26.5 °C 58.8 °F /  14.9 °C 30 in /  1015.1 hPa ENE 4 mph /  6.4 km/h 8 mph /  12.9 km/h 49 % 0 in /  0.0 mm
10:17 79.9 °F /  26.6 °C 58.5 °F /  14.7 °C 30 in /  1015.1 hPa East 1 mph /  1.6 km/h 7 mph /  11.3 km/h 48 % 0 in /  0.0 mm
10:27 81.1 °F /  27.3 °C 58.5 °F /  14.7 °C 30 in /  1015.1 hPa NE 2 mph /  3.2 km/h 7 mph /  11.3 km/h 46 % 0 in /  0.0 mm
10:32 81.7 °F /  27.6 °C 58.3 °F /  14.6 °C 30 in /  1014.8 hPa ENE 7 mph /  11.3 km/h 7 mph /  11.3 km/h 45 % 0 in /  0.0 mm
10:42 82.2 °F /  27.9 °C 58.1 °F /  14.5 °C 30 in /  1014.8 hPa Calm   8 mph /  12.9 km/h 44 % 0 in /  0.0 mm
10:52 83.1 °F /  28.4 °C 57.6 °F /  14.2 °C 30 in /  1014.8 hPa East 4 mph /  6.4 km/h 8 mph /  12.9 km/h 42 % 0 in /  0.0 mm
11:02 82.9 °F /  28.3 °C 57.6 °F /  14.2 °C 30 in /  1014.8 hPa ESE 3 mph /  4.8 km/h 8 mph /  12.9 km/h 42 % 0 in /  0.0 mm
11:12 83.7 °F /  28.7 °C 58.1 °F /  14.5 °C 30 in /  1014.8 hPa ENE 1 mph /  1.6 km/h 8 mph /  12.9 km/h 42 % 0 in /  0.0 mm
11:17 83.8 °F /  28.8 °C 57 °F /  13.9 °C 30 in /  1014.8 hPa ESE 3 mph /  4.8 km/h 9 mph /  14.5 km/h 40 % 0 in /  0.0 mm
11:22 83.8 °F /  28.8 °C 57.6 °F /  14.2 °C 30 in /  1014.8 hPa ESE 4 mph /  6.4 km/h 11 mph /  17.7 km/h 41 % 0 in /  0.0 mm
11:32 84.4 °F /  29.1 °C 57.4 °F /  14.1 °C 30 in /  1014.4 hPa SW 3 mph /  4.8 km/h 11 mph /  17.7 km/h 40 % 0 in /  0.0 mm
11:37 84.9 °F /  29.4 °C 57.2 °F /  14.0 °C 30 in /  1014.4 hPa ENE 3 mph /  4.8 km/h 10 mph /  16.1 km/h 39 % 0 in /  0.0 mm
11:47 85.6 °F /  29.8 °C 57.2 °F /  14.0 °C 30 in /  1014.4 hPa ENE 1 mph /  1.6 km/h 10 mph /  16.1 km/h 38 % 0 in /  0.0 mm
11:52 86.2 °F /  30.1 °C 58.3 °F /  14.6 °C 30 in /  1014.4 hPa East 1 mph /  1.6 km/h 10 mph /  16.1 km/h 39 % 0 in /  0.0 mm
11:57 86.4 °F /  30.2 °C 57.7 °F /  14.3 °C 30 in /  1014.4 hPa East 6 mph /  9.7 km/h 9 mph /  14.5 km/h 38 % 0 in /  0.0 mm
12:02 86.7 °F /  30.4 °C 57.4 °F /  14.1 °C 30 in /  1014.4 hPa East 2 mph /  3.2 km/h 9 mph /  14.5 km/h 37 % 0 in /  0.0 mm
12:12 87.4 °F /  30.8 °C 57.9 °F /  14.4 °C 30 in /  1014.4 hPa ENE 2 mph /  3.2 km/h 10 mph /  16.1 km/h 37 % 0 in /  0.0 mm
12:17 87.4 °F /  30.8 °C 56.5 °F /  13.6 °C 30 in /  1014.4 hPa SE 4 mph /  6.4 km/h 10 mph /  16.1 km/h 35 % 0 in /  0.0 mm
12:22 87.6 °F /  30.9 °C 56.7 °F /  13.7 °C 30 in /  1014.4 hPa SE 4 mph /  6.4 km/h 10 mph /  16.1 km/h 35 % 0 in /  0.0 mm
12:32 87.6 °F /  30.9 °C 56.7 °F /  13.7 °C 30 in /  1014.4 hPa SSW 2 mph /  3.2 km/h 9 mph /  14.5 km/h 35 % 0 in /  0.0 mm
12:37 87.8 °F /  31.0 °C 56.7 °F /  13.7 °C 29.9 in /  1014.1 hPa SSE 5 mph /  8.0 km/h 10 mph /  16.1 km/h 35 % 0 in /  0.0 mm
12:42 87.6 °F /  30.9 °C 57.4 °F /  14.1 °C 29.9 in /  1014.1 hPa SSE 5 mph /  8.0 km/h 10 mph /  16.1 km/h 36 % 0 in /  0.0 mm
12:47 88 °F /  31.1 °C 58.5 °F /  14.7 °C 29.9 in /  1014.1 hPa ESE 3 mph /  4.8 km/h 10 mph /  16.1 km/h 37 % 0 in /  0.0 mm
12:52 88.5 °F /  31.4 °C 58.1 °F /  14.5 °C 29.9 in /  1013.8 hPa SSW 4 mph /  6.4 km/h 10 mph /  16.1 km/h 36 % 0 in /  0.0 mm
12:57 88.2 °F /  31.2 °C 58.6 °F /  14.8 °C 29.9 in /  1014.1 hPa ENE 5 mph /  8.0 km/h 10 mph /  16.1 km/h 37 % 0 in /  0.0 mm
13:02 88.3 °F /  31.3 °C 57.9 °F /  14.4 °C 29.9 in /  1014.1 hPa ESE 1 mph /  1.6 km/h 10 mph /  16.1 km/h 36 % 0 in /  0.0 mm
13:12 89.1 °F /  31.7 °C 58.6 °F /  14.8 °C 29.9 in /  1013.8 hPa SSW 2 mph /  3.2 km/h 11 mph /  17.7 km/h 36 % 0 in /  0.0 mm
13:22 88.5 °F /  31.4 °C 56.5 °F /  13.6 °C 29.9 in /  1013.8 hPa SSE 8 mph /  12.9 km/h 12 mph /  19.3 km/h 34 % 0 in /  0.0 mm
13:32 88.2 °F /  31.2 °C 57.9 °F /  14.4 °C 29.9 in /  1013.8 hPa SW 4 mph /  6.4 km/h 12 mph /  19.3 km/h 36 % 0 in /  0.0 mm
13:37 88 °F /  31.1 °C 57.7 °F /  14.3 °C 29.9 in /  1013.8 hPa East 2 mph /  3.2 km/h 11 mph /  17.7 km/h 36 % 0 in /  0.0 mm
13:42 88.3 °F /  31.3 °C 57.9 °F /  14.4 °C 29.9 in /  1013.8 hPa SSE 3 mph /  4.8 km/h 11 mph /  17.7 km/h 36 % 0 in /  0.0 mm
13:52 89.2 °F /  31.8 °C 58.8 °F /  14.9 °C 29.9 in /  1013.8 hPa WSW 4 mph /  6.4 km/h 12 mph /  19.3 km/h 36 % 0 in /  0.0 mm
13:57 90 °F /  32.2 °C 57.7 °F /  14.3 °C 29.9 in /  1013.4 hPa SE 3 mph /  4.8 km/h 12 mph /  19.3 km/h 34 % 0 in /  0.0 mm
14:02 90 °F /  32.2 °C 59.4 °F /  15.2 °C 29.9 in /  1013.4 hPa ESE 5 mph /  8.0 km/h 10 mph /  16.1 km/h 36 % 0 in /  0.0 mm
14:07 90 °F /  32.2 °C 58.6 °F /  14.8 °C 29.9 in /  1013.4 hPa SW 3 mph /  4.8 km/h 11 mph /  17.7 km/h 35 % 0 in /  0.0 mm
14:12 90.1 °F /  32.3 °C 58.8 °F /  14.9 °C 29.9 in /  1013.4 hPa SE 5 mph /  8.0 km/h 11 mph /  17.7 km/h 35 % 0 in /  0.0 mm
14:22 90 °F /  32.2 °C 58.6 °F /  14.8 °C 29.9 in /  1013.4 hPa NNE 2 mph /  3.2 km/h 11 mph /  17.7 km/h 35 % 0 in /  0.0 mm
14:27 90.7 °F /  32.6 °C 59.2 °F /  15.1 °C 29.9 in /  1013.4 hPa ESE 3 mph /  4.8 km/h 11 mph /  17.7 km/h 35 % 0 in /  0.0 mm
14:32 90.7 °F /  32.6 °C 59.2 °F /  15.1 °C 29.9 in /  1013.4 hPa East 3 mph /  4.8 km/h 11 mph /  17.7 km/h 35 % 0 in /  0.0 mm
14:37 91 °F /  32.8 °C 57.9 °F /  14.4 °C 29.9 in /  1013.1 hPa ESE 2 mph /  3.2 km/h 10 mph /  16.1 km/h 33 % 0 in /  0.0 mm
14:42 90.9 °F /  32.7 °C 58.6 °F /  14.8 °C 29.9 in /  1013.4 hPa ENE 3 mph /  4.8 km/h 11 mph /  17.7 km/h 34 % 0 in /  0.0 mm
14:47 91 °F /  32.8 °C 57.9 °F /  14.4 °C 29.9 in /  1013.1 hPa SW 3 mph /  4.8 km/h 11 mph /  17.7 km/h 33 % 0 in /  0.0 mm
14:52 91.2 °F /  32.9 °C 58.1 °F /  14.5 °C 29.9 in /  1013.1 hPa East 1 mph /  1.6 km/h 11 mph /  17.7 km/h 33 % 0 in /  0.0 mm
14:57 91.6 °F /  33.1 °C 59.2 °F /  15.1 °C 29.9 in /  1013.1 hPa SSE 2 mph /  3.2 km/h 15 mph /  24.1 km/h 34 % 0 in /  0.0 mm
15:02 91.9 °F /  33.3 °C 60.4 °F /  15.8 °C 29.9 in /  1012.8 hPa ESE 9 mph /  14.5 km/h 15 mph /  24.1 km/h 35 % 0 in /  0.0 mm
15:07 91.6 °F /  33.1 °C 59.2 °F /  15.1 °C 29.9 in /  1012.8 hPa ESE 2 mph /  3.2 km/h 10 mph /  16.1 km/h 34 % 0 in /  0.0 mm
15:12 91.2 °F /  32.9 °C 58.1 °F /  14.5 °C 29.9 in /  1012.8 hPa SSW 9 mph /  14.5 km/h 12 mph /  19.3 km/h 33 % 0 in /  0.0 mm
15:17 91.2 °F /  32.9 °C 58.1 °F /  14.5 °C 29.9 in /  1012.8 hPa ESE 6 mph /  9.7 km/h 12 mph /  19.3 km/h 33 % 0 in /  0.0 mm
15:22 91.6 °F /  33.1 °C 60.1 °F /  15.6 °C 29.9 in /  1012.8 hPa ESE 4 mph /  6.4 km/h 12 mph /  19.3 km/h 35 % 0 in /  0.0 mm
15:32 90.3 °F /  32.4 °C 58.1 °F /  14.5 °C 29.9 in /  1012.8 hPa West 2 mph /  3.2 km/h 12 mph /  19.3 km/h 34 % 0 in /  0.0 mm
15:37 90.5 °F /  32.5 °C 59.2 °F /  15.1 °C 29.9 in /  1012.8 hPa SE 2 mph /  3.2 km/h 12 mph /  19.3 km/h 35 % 0 in /  0.0 mm
15:42 91.4 °F /  33.0 °C 59.9 °F /  15.5 °C 29.9 in /  1012.8 hPa SE 3 mph /  4.8 km/h 10 mph /  16.1 km/h 35 % 0 in /  0.0 mm
15:47 91.8 °F /  33.2 °C 59.4 °F /  15.2 °C 29.9 in /  1012.4 hPa ENE 4 mph /  6.4 km/h 10 mph /  16.1 km/h 34 % 0 in /  0.0 mm
15:52 91.9 °F /  33.3 °C 60.4 °F /  15.8 °C 29.9 in /  1012.4 hPa SE 8 mph /  12.9 km/h 10 mph /  16.1 km/h 35 % 0 in /  0.0 mm
15:57 92.1 °F /  33.4 °C 59.7 °F /  15.4 °C 29.9 in /  1012.4 hPa East 3 mph /  4.8 km/h 10 mph /  16.1 km/h 34 % 0 in /  0.0 mm
16:02 92.5 °F /  33.6 °C 60.1 °F /  15.6 °C 29.9 in /  1012.4 hPa ESE 3 mph /  4.8 km/h 10 mph /  16.1 km/h 34 % 0 in /  0.0 mm
16:07 92.8 °F /  33.8 °C 60.3 °F /  15.7 °C 29.9 in /  1012.4 hPa ESE 5 mph /  8.0 km/h 9 mph /  14.5 km/h 34 % 0 in /  0.0 mm
16:12 92.7 °F /  33.7 °C 59.4 °F /  15.2 °C 29.9 in /  1012.4 hPa East 4 mph /  6.4 km/h 9 mph /  14.5 km/h 33 % 0 in /  0.0 mm
16:17 92.7 °F /  33.7 °C 59.4 °F /  15.2 °C 29.9 in /  1012.1 hPa SE 4 mph /  6.4 km/h 10 mph /  16.1 km/h 33 % 0 in /  0.0 mm
16:22 92.5 °F /  33.6 °C 59.2 °F /  15.1 °C 29.9 in /  1012.1 hPa East 5 mph /  8.0 km/h 11 mph /  17.7 km/h 33 % 0 in /  0.0 mm
16:27 92.5 °F /  33.6 °C 58.3 °F /  14.6 °C 29.9 in /  1012.1 hPa SE 4 mph /  6.4 km/h 11 mph /  17.7 km/h 32 % 0 in /  0.0 mm
16:32 92.5 °F /  33.6 °C 59.2 °F /  15.1 °C 29.9 in /  1012.1 hPa ESE 10 mph /  16.1 km/h 11 mph /  17.7 km/h 33 % 0 in /  0.0 mm
16:37 92.3 °F /  33.5 °C 59 °F /  15.0 °C 29.9 in /  1012.1 hPa ESE 10 mph /  16.1 km/h 11 mph /  17.7 km/h 33 % 0 in /  0.0 mm
16:42 92.8 °F /  33.8 °C 61.2 °F /  16.2 °C 29.9 in /  1011.7 hPa East 5 mph /  8.0 km/h 16 mph /  25.7 km/h 35 % 0 in /  0.0 mm
16:47 92.5 °F /  33.6 °C 60.1 °F /  15.6 °C 29.9 in /  1012.1 hPa SE 4 mph /  6.4 km/h 16 mph /  25.7 km/h 34 % 0 in /  0.0 mm
16:57 90.3 °F /  32.4 °C 58.1 °F /  14.5 °C 29.9 in /  1012.1 hPa East 4 mph /  6.4 km/h 10 mph /  16.1 km/h 34 % 0 in /  0.0 mm
17:02 89.8 °F /  32.1 °C 59.2 °F /  15.1 °C 29.9 in /  1011.7 hPa Calm   10 mph /  16.1 km/h 36 % 0 in /  0.0 mm
17:07 89.2 °F /  31.8 °C 59.5 °F /  15.3 °C 29.9 in /  1012.1 hPa SE 1 mph /  1.6 km/h 8 mph /  12.9 km/h 37 % 0 in /  0.0 mm
17:12 89.1 °F /  31.7 °C 60.1 °F /  15.6 °C 29.9 in /  1011.7 hPa ESE 2 mph /  3.2 km/h 8 mph /  12.9 km/h 38 % 0 in /  0.0 mm
17:17 88.7 °F /  31.5 °C 61.3 °F /  16.3 °C 29.9 in /  1011.7 hPa South 2 mph /  3.2 km/h 8 mph /  12.9 km/h 40 % 0 in /  0.0 mm
17:22 88.2 °F /  31.2 °C 62.8 °F /  17.1 °C 29.9 in /  1011.7 hPa SE 3 mph /  4.8 km/h 8 mph /  12.9 km/h 43 % 0 in /  0.0 mm
17:27 86.5 °F /  30.3 °C 66.7 °F /  19.3 °C 29.9 in /  1011.7 hPa SE 2 mph /  3.2 km/h 8 mph /  12.9 km/h 52 % 0 in /  0.0 mm
17:32 84.7 °F /  29.3 °C 66.2 °F /  19.0 °C 29.9 in /  1011.7 hPa East 4 mph /  6.4 km/h 7 mph /  11.3 km/h 54 % 0.01 in /  0.3 mm
17:37 84.6 °F /  29.2 °C 67.6 °F /  19.8 °C 29.9 in /  1011.7 hPa East 3 mph /  4.8 km/h 7 mph /  11.3 km/h 57 % 0.01 in /  0.3 mm
17:42 85.3 °F /  29.6 °C 66.7 °F /  19.3 °C 29.9 in /  1011.7 hPa ENE 5 mph /  8.0 km/h 7 mph /  11.3 km/h 54 % 0.01 in /  0.3 mm
17:47 85.8 °F /  29.9 °C 66.7 °F /  19.3 °C 29.9 in /  1011.7 hPa East 5 mph /  8.0 km/h 7 mph /  11.3 km/h 53 % 0.01 in /  0.3 mm
17:52 86.5 °F /  30.3 °C 66.7 °F /  19.3 °C 29.9 in /  1011.7 hPa ENE 5 mph /  8.0 km/h 9 mph /  14.5 km/h 52 % 0.01 in /  0.3 mm
17:57 87.3 °F /  30.7 °C 65.8 °F /  18.8 °C 29.9 in /  1011.4 hPa ENE 6 mph /  9.7 km/h 11 mph /  17.7 km/h 49 % 0.01 in /  0.3 mm
18:02 87.8 °F /  31.0 °C 65.7 °F /  18.7 °C 29.9 in /  1011.4 hPa ENE 3 mph /  4.8 km/h 11 mph /  17.7 km/h 48 % 0.01 in /  0.3 mm
18:12 88.3 °F /  31.3 °C 66.2 °F /  19.0 °C 29.9 in /  1011.4 hPa ENE 5 mph /  8.0 km/h 10 mph /  16.1 km/h 48 % 0.01 in /  0.3 mm
18:17 88.5 °F /  31.4 °C 66.4 °F /  19.1 °C 29.9 in /  1011.4 hPa ENE 6 mph /  9.7 km/h 10 mph /  16.1 km/h 48 % 0.01 in /  0.3 mm
18:22 88.2 °F /  31.2 °C 66.6 °F /  19.2 °C 29.9 in /  1011.4 hPa ENE 5 mph /  8.0 km/h 10 mph /  16.1 km/h 49 % 0.01 in /  0.3 mm
18:27 88 °F /  31.1 °C 66.4 °F /  19.1 °C 29.9 in /  1011.1 hPa NE 2 mph /  3.2 km/h 10 mph /  16.1 km/h 49 % 0.01 in /  0.3 mm
18:32 88 °F /  31.1 °C 65.3 °F /  18.5 °C 29.9 in /  1011.1 hPa East 4 mph /  6.4 km/h 8 mph /  12.9 km/h 47 % 0 in /  0.0 mm
18:42 88.2 °F /  31.2 °C 64.8 °F /  18.2 °C 29.9 in /  1011.1 hPa East 3 mph /  4.8 km/h 8 mph /  12.9 km/h 46 % 0 in /  0.0 mm
18:52 88.2 °F /  31.2 °C 63.5 °F /  17.5 °C 29.9 in /  1011.1 hPa East 3 mph /  4.8 km/h 7 mph /  11.3 km/h 44 % 0 in /  0.0 mm
18:57 88.5 °F /  31.4 °C 63.1 °F /  17.3 °C 29.9 in /  1011.1 hPa ESE 1 mph /  1.6 km/h 7 mph /  11.3 km/h 43 % 0 in /  0.0 mm
19:02 88.9 °F /  31.6 °C 62.8 °F /  17.1 °C 29.9 in /  1011.1 hPa ENE 3 mph /  4.8 km/h 6 mph /  9.7 km/h 42 % 0 in /  0.0 mm
19:07 88.9 °F /  31.6 °C 63.5 °F /  17.5 °C 29.9 in /  1011.1 hPa ENE 3 mph /  4.8 km/h 6 mph /  9.7 km/h 43 % 0 in /  0.0 mm
19:12 88.5 °F /  31.4 °C 63.1 °F /  17.3 °C 29.9 in /  1011.1 hPa ENE 5 mph /  8.0 km/h 6 mph /  9.7 km/h 43 % 0 in /  0.0 mm
19:17 88.3 °F /  31.3 °C 62.4 °F /  16.9 °C 29.9 in /  1011.1 hPa ENE 3 mph /  4.8 km/h 6 mph /  9.7 km/h 42 % 0 in /  0.0 mm
19:22 88.3 °F /  31.3 °C 61.7 °F /  16.5 °C 29.9 in /  1011.1 hPa ENE 5 mph /  8.0 km/h 7 mph /  11.3 km/h 41 % 0 in /  0.0 mm
19:27 88.3 °F /  31.3 °C 62.4 °F /  16.9 °C 29.9 in /  1011.1 hPa ENE 3 mph /  4.8 km/h 8 mph /  12.9 km/h 42 % 0 in /  0.0 mm
19:32 88.2 °F /  31.2 °C 62.8 °F /  17.1 °C 29.9 in /  1011.1 hPa East 6 mph /  9.7 km/h 8 mph /  12.9 km/h 43 % 0 in /  0.0 mm
19:37 88.2 °F /  31.2 °C 62.2 °F /  16.8 °C 29.9 in /  1011.1 hPa East 2 mph /  3.2 km/h 8 mph /  12.9 km/h 42 % 0 in /  0.0 mm
19:42 88 °F /  31.1 °C 62.6 °F /  17.0 °C 29.9 in /  1011.1 hPa ENE 4 mph /  6.4 km/h 8 mph /  12.9 km/h 43 % 0 in /  0.0 mm
19:47 87.6 °F /  30.9 °C 62.4 °F /  16.9 °C 29.9 in /  1011.1 hPa East 1 mph /  1.6 km/h 8 mph /  12.9 km/h 43 % 0 in /  0.0 mm
19:52 87.6 °F /  30.9 °C 62.4 °F /  16.9 °C 29.9 in /  1011.1 hPa ENE 4 mph /  6.4 km/h 6 mph /  9.7 km/h 43 % 0 in /  0.0 mm
19:57 87.4 °F /  30.8 °C 62.2 °F /  16.8 °C 29.9 in /  1011.1 hPa East 5 mph /  8.0 km/h 6 mph /  9.7 km/h 43 % 0 in /  0.0 mm
20:02 87.4 °F /  30.8 °C 62.2 °F /  16.8 °C 29.8 in /  1010.7 hPa East 4 mph /  6.4 km/h 7 mph /  11.3 km/h 43 % 0 in /  0.0 mm
20:12 87.1 °F /  30.6 °C 62.6 °F /  17.0 °C 29.8 in /  1010.7 hPa East 3 mph /  4.8 km/h 7 mph /  11.3 km/h 44 % 0 in /  0.0 mm
20:17 86.7 °F /  30.4 °C 62.2 °F /  16.8 °C 29.8 in /  1010.7 hPa East 3 mph /  4.8 km/h 7 mph /  11.3 km/h 44 % 0 in /  0.0 mm
20:22 86.5 °F /  30.3 °C 62.6 °F /  17.0 °C 29.8 in /  1010.7 hPa East 1 mph /  1.6 km/h 6 mph /  9.7 km/h 45 % 0 in /  0.0 mm
20:27 86.5 °F /  30.3 °C 62.6 °F /  17.0 °C 29.8 in /  1010.7 hPa ENE 2 mph /  3.2 km/h 6 mph /  9.7 km/h 45 % 0 in /  0.0 mm
20:32 86.4 °F /  30.2 °C 62.4 °F /  16.9 °C 29.8 in /  1010.4 hPa ENE 3 mph /  4.8 km/h 5 mph /  8.0 km/h 45 % 0 in /  0.0 mm
20:37 86.2 °F /  30.1 °C 63 °F /  17.2 °C 29.8 in /  1010.4 hPa ENE 3 mph /  4.8 km/h 5 mph /  8.0 km/h 46 % 0 in /  0.0 mm
20:42 85.8 °F /  29.9 °C 63.3 °F /  17.4 °C 29.8 in /  1010.4 hPa ENE 1 mph /  1.6 km/h 4 mph /  6.4 km/h 47 % 0 in /  0.0 mm
20:47 85.6 °F /  29.8 °C 63.1 °F /  17.3 °C 29.8 in /  1010.4 hPa East 2 mph /  3.2 km/h 5 mph /  8.0 km/h 47 % 0 in /  0.0 mm
20:52 85.3 °F /  29.6 °C 62.8 °F /  17.1 °C 29.8 in /  1010.7 hPa East 4 mph /  6.4 km/h 5 mph /  8.0 km/h 47 % 0 in /  0.0 mm
20:57 84.7 °F /  29.3 °C 63 °F /  17.2 °C 29.8 in /  1010.4 hPa ENE 2 mph /  3.2 km/h 5 mph /  8.0 km/h 48 % 0 in /  0.0 mm
21:02 84.6 °F /  29.2 °C 62.8 °F /  17.1 °C 29.8 in /  1010.4 hPa East 2 mph /  3.2 km/h 5 mph /  8.0 km/h 48 % 0 in /  0.0 mm
21:07 84.4 °F /  29.1 °C 62.6 °F /  17.0 °C 29.8 in /  1010.4 hPa ENE 2 mph /  3.2 km/h 5 mph /  8.0 km/h 48 % 0 in /  0.0 mm
21:12 84 °F /  28.9 °C 62.2 °F /  16.8 °C 29.8 in /  1010.4 hPa East 2 mph /  3.2 km/h 5 mph /  8.0 km/h 48 % 0 in /  0.0 mm
21:17 83.7 °F /  28.7 °C 62.4 °F /  16.9 °C 29.8 in /  1010.4 hPa Calm   4 mph /  6.4 km/h 49 % 0 in /  0.0 mm
21:22 83.7 °F /  28.7 °C 63 °F /  17.2 °C 29.8 in /  1010.4 hPa West 1 mph /  1.6 km/h 4 mph /  6.4 km/h 50 % 0 in /  0.0 mm
21:32 81.5 °F /  27.5 °C 63.3 °F /  17.4 °C 29.8 in /  1010.7 hPa Calm   3 mph /  4.8 km/h 54 % 0 in /  0.0 mm
21:37 81 °F /  27.2 °C 62.8 °F /  17.1 °C 29.8 in /  1010.7 hPa ENE 1 mph /  1.6 km/h 4 mph /  6.4 km/h 54 % 0 in /  0.0 mm
21:42 81.9 °F /  27.7 °C 62.4 °F /  16.9 °C 29.8 in /  1010.7 hPa Calm   4 mph /  6.4 km/h 52 % 0 in /  0.0 mm
21:47 81.5 °F /  27.5 °C 62.8 °F /  17.1 °C 29.8 in /  1010.7 hPa Calm   2 mph /  3.2 km/h 53 % 0 in /  0.0 mm
21:52 81.3 °F /  27.4 °C 62.1 °F /  16.7 °C 29.8 in /  1010.7 hPa East 1 mph /  1.6 km/h 2 mph /  3.2 km/h 52 % 0 in /  0.0 mm
21:57 81.3 °F /  27.4 °C 62.1 °F /  16.7 °C 29.8 in /  1010.7 hPa ENE 1 mph /  1.6 km/h 2 mph /  3.2 km/h 52 % 0 in /  0.0 mm
22:02 80.8 °F /  27.1 °C 62.6 °F /  17.0 °C 29.8 in /  1010.7 hPa Calm   3 mph /  4.8 km/h 54 % 0 in /  0.0 mm
22:07 79.3 °F /  26.3 °C 62.2 °F /  16.8 °C 29.8 in /  1010.7 hPa Calm   3 mph /  4.8 km/h 56 % 0 in /  0.0 mm
22:12 79.3 °F /  26.3 °C 61.7 °F /  16.5 °C 29.8 in /  1010.7 hPa Calm   2 mph /  3.2 km/h 55 % 0 in /  0.0 mm
22:17 79.3 °F /  26.3 °C 62.2 °F /  16.8 °C 29.9 in /  1011.1 hPa WNW 1 mph /  1.6 km/h   56 % 0 in /  0.0 mm
22:22 78.6 °F /  25.9 °C 62.1 °F /  16.7 °C 29.8 in /  1010.7 hPa Calm   2 mph /  3.2 km/h 57 % 0 in /  0.0 mm
22:32 78.3 °F /  25.7 °C 62.2 °F /  16.8 °C 29.9 in /  1011.1 hPa Calm   2 mph /  3.2 km/h 58 % 0 in /  0.0 mm
22:37 77.9 °F /  25.5 °C 61.9 °F /  16.6 °C 29.8 in /  1010.7 hPa Calm   1 mph /  1.6 km/h 58 % 0 in /  0.0 mm
22:42 77.7 °F /  25.4 °C 61.7 °F /  16.5 °C 29.9 in /  1011.1 hPa Calm   1 mph /  1.6 km/h 58 % 0 in /  0.0 mm
22:47 77.9 °F /  25.5 °C 61.5 °F /  16.4 °C 29.9 in /  1011.1 hPa Calm   1 mph /  1.6 km/h 57 % 0 in /  0.0 mm
22:52 77.7 °F /  25.4 °C 61.7 °F /  16.5 °C 29.9 in /  1011.1 hPa Calm   1 mph /  1.6 km/h 58 % 0 in /  0.0 mm
22:57 77.7 °F /  25.4 °C 61.7 °F /  16.5 °C 29.8 in /  1010.7 hPa Calm   1 mph /  1.6 km/h 58 % 0 in /  0.0 mm
23:02 76.8 °F /  24.9 °C 61.3 °F /  16.3 °C 29.8 in /  1010.7 hPa Calm   1 mph /  1.6 km/h 59 % 0 in /  0.0 mm
23:07 76.3 °F /  24.6 °C 61.9 °F /  16.6 °C 29.8 in /  1010.7 hPa WNW 1 mph /  1.6 km/h 2 mph /  3.2 km/h 61 % 0 in /  0.0 mm
23:12 75.7 °F /  24.3 °C 61.9 °F /  16.6 °C 29.9 in /  1011.1 hPa Calm   2 mph /  3.2 km/h 62 % 0 in /  0.0 mm
23:17 75.9 °F /  24.4 °C 61.5 °F /  16.4 °C 29.9 in /  1011.1 hPa Calm   2 mph /  3.2 km/h 61 % 0 in /  0.0 mm
23:22 76.3 °F /  24.6 °C 61.3 °F /  16.3 °C 29.9 in /  1011.1 hPa Calm   2 mph /  3.2 km/h 60 % 0 in /  0.0 mm
23:27 76.5 °F /  24.7 °C 61 °F /  16.1 °C 29.8 in /  1010.7 hPa Calm   1 mph /  1.6 km/h 59 % 0 in /  0.0 mm
23:32 76.3 °F /  24.6 °C 61.3 °F /  16.3 °C 29.8 in /  1010.7 hPa Calm   1 mph /  1.6 km/h 60 % 0 in /  0.0 mm
23:37 75.6 °F /  24.2 °C 61.7 °F /  16.5 °C 29.9 in /  1011.1 hPa Calm     62 % 0 in /  0.0 mm
23:42 75.2 °F /  24.0 °C 61.3 °F /  16.3 °C 29.9 in /  1011.1 hPa Calm     62 % 0 in /  0.0 mm
23:47 75 °F /  23.9 °C 60.3 °F /  15.7 °C 29.9 in /  1011.1 hPa Calm     60 % 0 in /  0.0 mm
23:52 75 °F /  23.9 °C 60.3 °F /  15.7 °C 29.9 in /  1011.1 hPa Calm   2 mph /  3.2 km/h 60 % 0 in /  0.0 mm
23:57 75.6 °F /  24.2 °C 60.3 °F /  15.7 °C 29.9 in /  1011.1 hPa Calm   2 mph /  3.2 km/h 59 % 0 in /  0.0 mm
Meteo18
Compliments of Weather Underground - 4 mb

Script developed by  Jim McMurry - jmcmurry@mwt.net Adapted for the template by  Wim van der Kuil - Leuven-Template.eu

You find our weather info also at:

European Weather Network

Weather Underground

Equipment we use:

Weather-station
Davis Vue

Weather-program
Meteohub

Weather-server
Raspberry PI 2 B+

Provider
1 and 1

Davis Vue

Meteohub

Raspberry PI 2 B+

1 and 1